sensor_id;sensor_type;location;lat;lon;timestamp;P1;durP1;ratioP1;P2;durP2;ratioP2
75220;SDS011;63802;53.232;6.570;2022-10-31T00:00:59;39.28;;;12.82;;
75220;SDS011;63802;53.232;6.570;2022-10-31T00:03:25;38.25;;;12.40;;
75220;SDS011;63802;53.232;6.570;2022-10-31T00:05:51;35.88;;;12.13;;
75220;SDS011;63802;53.232;6.570;2022-10-31T00:08:17;36.35;;;13.02;;
75220;SDS011;63802;53.232;6.570;2022-10-31T00:10:43;32.45;;;12.05;;
75220;SDS011;63802;53.232;6.570;2022-10-31T00:13:10;33.85;;;12.73;;
75220;SDS011;63802;53.232;6.570;2022-10-31T00:15:37;32.47;;;12.15;;
75220;SDS011;63802;53.232;6.570;2022-10-31T00:18:03;47.38;;;13.85;;
75220;SDS011;63802;53.232;6.570;2022-10-31T00:20:30;39.55;;;14.18;;
75220;SDS011;63802;53.232;6.570;2022-10-31T00:22:59;34.65;;;11.70;;
75220;SDS011;63802;53.232;6.570;2022-10-31T00:25:26;38.15;;;13.50;;
75220;SDS011;63802;53.232;6.570;2022-10-31T00:27:52;35.17;;;13.73;;
75220;SDS011;63802;53.232;6.570;2022-10-31T00:30:18;42.30;;;13.20;;
75220;SDS011;63802;53.232;6.570;2022-10-31T00:32:43;45.40;;;16.08;;
75220;SDS011;63802;53.232;6.570;2022-10-31T00:35:09;47.88;;;16.60;;
75220;SDS011;63802;53.232;6.570;2022-10-31T00:37:34;37.75;;;12.82;;
75220;SDS011;63802;53.232;6.570;2022-10-31T00:39:59;42.85;;;16.00;;
75220;SDS011;63802;53.232;6.570;2022-10-31T00:42:24;44.95;;;14.85;;
75220;SDS011;63802;53.232;6.570;2022-10-31T00:44:50;48.17;;;16.50;;
75220;SDS011;63802;53.232;6.570;2022-10-31T00:47:15;56.35;;;17.45;;
75220;SDS011;63802;53.232;6.570;2022-10-31T00:49:40;50.60;;;16.50;;
75220;SDS011;63802;53.232;6.570;2022-10-31T00:52:06;46.85;;;18.80;;
75220;SDS011;63802;53.232;6.570;2022-10-31T00:54:31;54.60;;;18.23;;
75220;SDS011;63802;53.232;6.570;2022-10-31T00:56:57;49.50;;;16.52;;
75220;SDS011;63802;53.232;6.570;2022-10-31T00:59:23;48.45;;;16.38;;
75220;SDS011;63802;53.232;6.570;2022-10-31T01:01:48;47.08;;;17.88;;
75220;SDS011;63802;53.232;6.570;2022-10-31T01:04:14;38.97;;;16.83;;
75220;SDS011;63802;53.232;6.570;2022-10-31T01:06:39;47.00;;;18.15;;
75220;SDS011;63802;53.232;6.570;2022-10-31T01:09:04;44.45;;;16.92;;
75220;SDS011;63802;53.232;6.570;2022-10-31T01:11:30;49.90;;;17.42;;
75220;SDS011;63802;53.232;6.570;2022-10-31T01:13:55;54.63;;;19.00;;
75220;SDS011;63802;53.232;6.570;2022-10-31T01:16:23;43.58;;;15.80;;
75220;SDS011;63802;53.232;6.570;2022-10-31T01:18:50;49.85;;;18.83;;
75220;SDS011;63802;53.232;6.570;2022-10-31T01:21:17;49.40;;;17.15;;
75220;SDS011;63802;53.232;6.570;2022-10-31T01:23:44;44.80;;;17.02;;
75220;SDS011;63802;53.232;6.570;2022-10-31T01:26:14;50.30;;;18.63;;
75220;SDS011;63802;53.232;6.570;2022-10-31T01:28:46;45.85;;;17.17;;
75220;SDS011;63802;53.232;6.570;2022-10-31T01:31:15;44.42;;;16.17;;
75220;SDS011;63802;53.232;6.570;2022-10-31T01:33:42;43.25;;;15.18;;
75220;SDS011;63802;53.232;6.570;2022-10-31T01:36:27;48.05;;;16.92;;
75220;SDS011;63802;53.232;6.570;2022-10-31T01:38:53;39.33;;;13.52;;
75220;SDS011;63802;53.232;6.570;2022-10-31T01:41:21;40.80;;;14.85;;
75220;SDS011;63802;53.232;6.570;2022-10-31T01:46:15;35.03;;;12.75;;
75220;SDS011;63802;53.232;6.570;2022-10-31T01:48:44;40.15;;;13.48;;
75220;SDS011;63802;53.232;6.570;2022-10-31T01:51:11;37.90;;;14.40;;
75220;SDS011;63802;53.232;6.570;2022-10-31T01:53:39;41.83;;;14.23;;
75220;SDS011;63802;53.232;6.570;2022-10-31T01:56:07;38.50;;;13.48;;
75220;SDS011;63802;53.232;6.570;2022-10-31T01:58:33;33.20;;;13.25;;
75220;SDS011;63802;53.232;6.570;2022-10-31T02:00:59;32.92;;;11.65;;
75220;SDS011;63802;53.232;6.570;2022-10-31T02:03:26;34.70;;;12.50;;
75220;SDS011;63802;53.232;6.570;2022-10-31T02:05:53;35.63;;;13.13;;
75220;SDS011;63802;53.232;6.570;2022-10-31T02:08:30;36.83;;;13.80;;
75220;SDS011;63802;53.232;6.570;2022-10-31T02:10:58;44.90;;;14.93;;
75220;SDS011;63802;53.232;6.570;2022-10-31T02:13:26;46.13;;;15.65;;
75220;SDS011;63802;53.232;6.570;2022-10-31T02:15:54;46.30;;;14.63;;
75220;SDS011;63802;53.232;6.570;2022-10-31T02:18:21;45.13;;;14.73;;
75220;SDS011;63802;53.232;6.570;2022-10-31T02:20:55;39.53;;;14.93;;
75220;SDS011;63802;53.232;6.570;2022-10-31T02:23:58;44.58;;;14.68;;
75220;SDS011;63802;53.232;6.570;2022-10-31T02:29:45;36.42;;;14.85;;
75220;SDS011;63802;53.232;6.570;2022-10-31T02:43:58;43.35;;;15.77;;
75220;SDS011;63802;53.232;6.570;2022-10-31T02:49:20;55.78;;;16.48;;
75220;SDS011;63802;53.232;6.570;2022-10-31T02:51:53;42.90;;;15.07;;
75220;SDS011;63802;53.232;6.570;2022-10-31T02:54:27;44.08;;;14.40;;
75220;SDS011;63802;53.232;6.570;2022-10-31T02:56:58;35.10;;;12.68;;
75220;SDS011;63802;53.232;6.570;2022-10-31T02:59:30;35.60;;;13.45;;
75220;SDS011;63802;53.232;6.570;2022-10-31T03:09:59;35.90;;;12.15;;
75220;SDS011;63802;53.232;6.570;2022-10-31T03:12:29;40.25;;;14.73;;
75220;SDS011;63802;53.232;6.570;2022-10-31T03:20:39;30.20;;;11.63;;
75220;SDS011;63802;53.232;6.570;2022-10-31T03:23:11;35.83;;;13.68;;
75220;SDS011;63802;53.232;6.570;2022-10-31T03:25:39;43.47;;;15.10;;
75220;SDS011;63802;53.232;6.570;2022-10-31T03:28:06;48.00;;;16.63;;
75220;SDS011;63802;53.232;6.570;2022-10-31T03:30:35;50.50;;;15.75;;
75220;SDS011;63802;53.232;6.570;2022-10-31T03:33:04;41.70;;;14.10;;
75220;SDS011;63802;53.232;6.570;2022-10-31T03:35:34;54.33;;;17.20;;
75220;SDS011;63802;53.232;6.570;2022-10-31T03:38:02;39.25;;;14.38;;
75220;SDS011;63802;53.232;6.570;2022-10-31T03:40:29;45.83;;;15.82;;
75220;SDS011;63802;53.232;6.570;2022-10-31T03:42:58;44.67;;;15.35;;
75220;SDS011;63802;53.232;6.570;2022-10-31T03:45:32;41.05;;;14.63;;
75220;SDS011;63802;53.232;6.570;2022-10-31T03:48:04;46.08;;;14.75;;
75220;SDS011;63802;53.232;6.570;2022-10-31T03:50:33;37.10;;;13.90;;
75220;SDS011;63802;53.232;6.570;2022-10-31T03:53:24;41.15;;;14.23;;
75220;SDS011;63802;53.232;6.570;2022-10-31T03:55:57;35.30;;;13.90;;
75220;SDS011;63802;53.232;6.570;2022-10-31T03:58:28;49.15;;;15.93;;
75220;SDS011;63802;53.232;6.570;2022-10-31T04:00:59;33.08;;;13.77;;
75220;SDS011;63802;53.232;6.570;2022-10-31T04:03:28;28.23;;;11.48;;
75220;SDS011;63802;53.232;6.570;2022-10-31T04:05:58;32.15;;;12.15;;
75220;SDS011;63802;53.232;6.570;2022-10-31T04:08:28;34.55;;;12.85;;
75220;SDS011;63802;53.232;6.570;2022-10-31T04:10:57;37.15;;;12.15;;
75220;SDS011;63802;53.232;6.570;2022-10-31T04:13:26;38.08;;;12.88;;
75220;SDS011;63802;53.232;6.570;2022-10-31T04:15:54;32.67;;;12.27;;
75220;SDS011;63802;53.232;6.570;2022-10-31T04:18:22;33.83;;;13.05;;
75220;SDS011;63802;53.232;6.570;2022-10-31T04:20:47;37.45;;;13.07;;
75220;SDS011;63802;53.232;6.570;2022-10-31T04:23:20;36.85;;;13.43;;
75220;SDS011;63802;53.232;6.570;2022-10-31T04:25:49;33.13;;;13.00;;
75220;SDS011;63802;53.232;6.570;2022-10-31T04:28:14;33.03;;;13.50;;
75220;SDS011;63802;53.232;6.570;2022-10-31T04:30:39;36.28;;;13.00;;
75220;SDS011;63802;53.232;6.570;2022-10-31T04:33:05;33.00;;;12.77;;
75220;SDS011;63802;53.232;6.570;2022-10-31T04:35:30;42.38;;;14.50;;
75220;SDS011;63802;53.232;6.570;2022-10-31T04:37:56;50.63;;;14.35;;
75220;SDS011;63802;53.232;6.570;2022-10-31T04:40:21;43.67;;;14.50;;
75220;SDS011;63802;53.232;6.570;2022-10-31T04:42:46;32.95;;;13.45;;
75220;SDS011;63802;53.232;6.570;2022-10-31T04:45:11;32.95;;;11.48;;
75220;SDS011;63802;53.232;6.570;2022-10-31T04:47:37;31.42;;;11.60;;
75220;SDS011;63802;53.232;6.570;2022-10-31T04:50:03;35.60;;;13.63;;
75220;SDS011;63802;53.232;6.570;2022-10-31T04:52:28;47.08;;;14.65;;
75220;SDS011;63802;53.232;6.570;2022-10-31T04:54:54;58.53;;;16.60;;
75220;SDS011;63802;53.232;6.570;2022-10-31T04:57:19;55.75;;;17.33;;
75220;SDS011;63802;53.232;6.570;2022-10-31T04:59:45;64.60;;;20.17;;
75220;SDS011;63802;53.232;6.570;2022-10-31T05:02:10;56.78;;;17.98;;
75220;SDS011;63802;53.232;6.570;2022-10-31T05:04:35;63.38;;;17.98;;
75220;SDS011;63802;53.232;6.570;2022-10-31T05:07:01;58.10;;;18.58;;
75220;SDS011;63802;53.232;6.570;2022-10-31T05:09:26;46.85;;;17.17;;
75220;SDS011;63802;53.232;6.570;2022-10-31T05:11:51;51.70;;;16.98;;
75220;SDS011;63802;53.232;6.570;2022-10-31T05:14:17;41.33;;;14.75;;
75220;SDS011;63802;53.232;6.570;2022-10-31T05:16:42;35.45;;;12.88;;
75220;SDS011;63802;53.232;6.570;2022-10-31T05:19:07;31.42;;;13.13;;
75220;SDS011;63802;53.232;6.570;2022-10-31T05:21:33;36.63;;;14.85;;
75220;SDS011;63802;53.232;6.570;2022-10-31T05:23:58;32.13;;;12.13;;
75220;SDS011;63802;53.232;6.570;2022-10-31T05:26:24;50.85;;;17.52;;
75220;SDS011;63802;53.232;6.570;2022-10-31T05:28:49;59.55;;;18.48;;
75220;SDS011;63802;53.232;6.570;2022-10-31T05:31:15;55.47;;;18.90;;
75220;SDS011;63802;53.232;6.570;2022-10-31T05:33:40;43.97;;;15.60;;
75220;SDS011;63802;53.232;6.570;2022-10-31T05:36:05;39.53;;;15.82;;
75220;SDS011;63802;53.232;6.570;2022-10-31T05:38:31;44.90;;;18.60;;
75220;SDS011;63802;53.232;6.570;2022-10-31T05:40:56;54.45;;;20.33;;
75220;SDS011;63802;53.232;6.570;2022-10-31T05:43:26;49.35;;;18.55;;
75220;SDS011;63802;53.232;6.570;2022-10-31T05:45:52;39.88;;;16.52;;
75220;SDS011;63802;53.232;6.570;2022-10-31T05:48:18;37.38;;;15.73;;
75220;SDS011;63802;53.232;6.570;2022-10-31T05:50:44;40.38;;;15.55;;
75220;SDS011;63802;53.232;6.570;2022-10-31T05:53:09;50.35;;;17.73;;
75220;SDS011;63802;53.232;6.570;2022-10-31T05:55:35;46.08;;;16.40;;
75220;SDS011;63802;53.232;6.570;2022-10-31T05:58:01;54.72;;;18.50;;
75220;SDS011;63802;53.232;6.570;2022-10-31T06:00:26;49.35;;;18.38;;
75220;SDS011;63802;53.232;6.570;2022-10-31T06:02:59;47.22;;;17.80;;
75220;SDS011;63802;53.232;6.570;2022-10-31T06:05:28;44.85;;;17.05;;
75220;SDS011;63802;53.232;6.570;2022-10-31T06:07:55;51.75;;;16.88;;
75220;SDS011;63802;53.232;6.570;2022-10-31T06:10:21;34.00;;;13.43;;
75220;SDS011;63802;53.232;6.570;2022-10-31T06:12:47;33.50;;;13.93;;
75220;SDS011;63802;53.232;6.570;2022-10-31T06:15:12;31.58;;;12.18;;
75220;SDS011;63802;53.232;6.570;2022-10-31T06:17:38;39.28;;;16.60;;
75220;SDS011;63802;53.232;6.570;2022-10-31T06:20:04;39.65;;;15.77;;
75220;SDS011;63802;53.232;6.570;2022-10-31T06:22:30;42.08;;;15.57;;
75220;SDS011;63802;53.232;6.570;2022-10-31T06:24:55;47.72;;;17.42;;
75220;SDS011;63802;53.232;6.570;2022-10-31T06:27:21;50.35;;;18.63;;
75220;SDS011;63802;53.232;6.570;2022-10-31T06:29:46;40.25;;;15.38;;
75220;SDS011;63802;53.232;6.570;2022-10-31T06:32:12;50.97;;;18.05;;
75220;SDS011;63802;53.232;6.570;2022-10-31T06:34:38;44.83;;;17.05;;
75220;SDS011;63802;53.232;6.570;2022-10-31T06:37:05;43.33;;;18.20;;
75220;SDS011;63802;53.232;6.570;2022-10-31T06:39:34;42.22;;;17.55;;
75220;SDS011;63802;53.232;6.570;2022-10-31T06:41:59;47.95;;;18.25;;
75220;SDS011;63802;53.232;6.570;2022-10-31T06:44:25;43.20;;;16.75;;
75220;SDS011;63802;53.232;6.570;2022-10-31T06:46:50;36.40;;;15.57;;
75220;SDS011;63802;53.232;6.570;2022-10-31T06:49:16;37.00;;;15.73;;
75220;SDS011;63802;53.232;6.570;2022-10-31T06:51:41;43.38;;;16.73;;
75220;SDS011;63802;53.232;6.570;2022-10-31T06:54:07;39.88;;;14.95;;
75220;SDS011;63802;53.232;6.570;2022-10-31T06:56:33;35.13;;;13.57;;
75220;SDS011;63802;53.232;6.570;2022-10-31T06:58:58;39.97;;;16.23;;
75220;SDS011;63802;53.232;6.570;2022-10-31T07:01:23;32.50;;;13.43;;
75220;SDS011;63802;53.232;6.570;2022-10-31T07:03:49;27.95;;;10.30;;
75220;SDS011;63802;53.232;6.570;2022-10-31T07:06:14;25.77;;;11.18;;
75220;SDS011;63802;53.232;6.570;2022-10-31T07:08:40;33.45;;;14.45;;
75220;SDS011;63802;53.232;6.570;2022-10-31T07:11:05;34.05;;;14.38;;
75220;SDS011;63802;53.232;6.570;2022-10-31T07:13:31;48.60;;;18.63;;
75220;SDS011;63802;53.232;6.570;2022-10-31T07:16:00;36.00;;;14.68;;
75220;SDS011;63802;53.232;6.570;2022-10-31T07:18:27;33.95;;;13.70;;
75220;SDS011;63802;53.232;6.570;2022-10-31T07:20:53;34.15;;;13.13;;
75220;SDS011;63802;53.232;6.570;2022-10-31T07:23:18;29.65;;;12.70;;
75220;SDS011;63802;53.232;6.570;2022-10-31T07:25:44;31.23;;;12.25;;
75220;SDS011;63802;53.232;6.570;2022-10-31T07:28:09;35.40;;;14.43;;
75220;SDS011;63802;53.232;6.570;2022-10-31T07:30:37;30.80;;;13.75;;
75220;SDS011;63802;53.232;6.570;2022-10-31T07:33:03;33.13;;;13.98;;
75220;SDS011;63802;53.232;6.570;2022-10-31T07:35:30;35.13;;;16.23;;
75220;SDS011;63802;53.232;6.570;2022-10-31T07:37:56;34.78;;;14.77;;
75220;SDS011;63802;53.232;6.570;2022-10-31T07:40:31;33.00;;;13.80;;
75220;SDS011;63802;53.232;6.570;2022-10-31T07:42:57;33.10;;;14.90;;
75220;SDS011;63802;53.232;6.570;2022-10-31T07:45:22;37.58;;;16.38;;
75220;SDS011;63802;53.232;6.570;2022-10-31T07:47:49;32.78;;;15.38;;
75220;SDS011;63802;53.232;6.570;2022-10-31T07:50:20;34.47;;;15.05;;
75220;SDS011;63802;53.232;6.570;2022-10-31T07:52:47;31.48;;;14.38;;
75220;SDS011;63802;53.232;6.570;2022-10-31T07:55:13;37.47;;;15.70;;
75220;SDS011;63802;53.232;6.570;2022-10-31T07:57:39;39.38;;;15.57;;
75220;SDS011;63802;53.232;6.570;2022-10-31T08:00:09;35.83;;;15.68;;
75220;SDS011;63802;53.232;6.570;2022-10-31T08:02:35;34.88;;;16.45;;
75220;SDS011;63802;53.232;6.570;2022-10-31T08:05:01;36.45;;;16.92;;
75220;SDS011;63802;53.232;6.570;2022-10-31T08:07:27;34.15;;;15.55;;
75220;SDS011;63802;53.232;6.570;2022-10-31T08:09:53;32.90;;;13.80;;
75220;SDS011;63802;53.232;6.570;2022-10-31T08:12:19;32.13;;;15.98;;
75220;SDS011;63802;53.232;6.570;2022-10-31T08:14:45;34.50;;;14.63;;
75220;SDS011;63802;53.232;6.570;2022-10-31T08:17:10;28.67;;;14.05;;
75220;SDS011;63802;53.232;6.570;2022-10-31T08:19:39;36.58;;;15.27;;
75220;SDS011;63802;53.232;6.570;2022-10-31T08:22:04;29.35;;;14.43;;
75220;SDS011;63802;53.232;6.570;2022-10-31T08:24:29;32.15;;;14.25;;
75220;SDS011;63802;53.232;6.570;2022-10-31T08:26:55;29.75;;;14.57;;
75220;SDS011;63802;53.232;6.570;2022-10-31T08:29:20;28.30;;;12.93;;
75220;SDS011;63802;53.232;6.570;2022-10-31T08:31:46;26.48;;;12.77;;
75220;SDS011;63802;53.232;6.570;2022-10-31T08:34:11;26.33;;;13.00;;
75220;SDS011;63802;53.232;6.570;2022-10-31T08:36:36;24.00;;;11.85;;
75220;SDS011;63802;53.232;6.570;2022-10-31T08:39:02;28.23;;;12.25;;
75220;SDS011;63802;53.232;6.570;2022-10-31T08:41:28;26.42;;;12.52;;
75220;SDS011;63802;53.232;6.570;2022-10-31T08:43:53;25.92;;;12.73;;
75220;SDS011;63802;53.232;6.570;2022-10-31T08:46:19;22.83;;;12.00;;
75220;SDS011;63802;53.232;6.570;2022-10-31T08:48:44;31.33;;;15.25;;
75220;SDS011;63802;53.232;6.570;2022-10-31T08:51:12;27.25;;;12.80;;
75220;SDS011;63802;53.232;6.570;2022-10-31T08:53:38;27.05;;;11.80;;
75220;SDS011;63802;53.232;6.570;2022-10-31T08:56:03;24.25;;;10.55;;
75220;SDS011;63802;53.232;6.570;2022-10-31T08:58:29;30.45;;;13.15;;
75220;SDS011;63802;53.232;6.570;2022-10-31T09:00:54;22.02;;;11.25;;
75220;SDS011;63802;53.232;6.570;2022-10-31T09:03:24;27.55;;;12.45;;
75220;SDS011;63802;53.232;6.570;2022-10-31T09:05:54;21.67;;;10.60;;
75220;SDS011;63802;53.232;6.570;2022-10-31T09:08:21;22.35;;;11.65;;
75220;SDS011;63802;53.232;6.570;2022-10-31T09:10:47;24.45;;;11.45;;
75220;SDS011;63802;53.232;6.570;2022-10-31T09:13:13;25.17;;;10.88;;
75220;SDS011;63802;53.232;6.570;2022-10-31T09:15:42;20.50;;;10.82;;
75220;SDS011;63802;53.232;6.570;2022-10-31T09:18:09;18.95;;;9.70;;
75220;SDS011;63802;53.232;6.570;2022-10-31T09:20:35;21.98;;;11.18;;
75220;SDS011;63802;53.232;6.570;2022-10-31T09:23:12;23.45;;;10.88;;
75220;SDS011;63802;53.232;6.570;2022-10-31T09:25:39;19.10;;;9.80;;
75220;SDS011;63802;53.232;6.570;2022-10-31T09:28:06;18.20;;;9.45;;
75220;SDS011;63802;53.232;6.570;2022-10-31T09:30:34;19.80;;;9.65;;
75220;SDS011;63802;53.232;6.570;2022-10-31T09:33:07;16.80;;;10.13;;
75220;SDS011;63802;53.232;6.570;2022-10-31T09:35:35;21.73;;;9.98;;
75220;SDS011;63802;53.232;6.570;2022-10-31T09:38:02;19.60;;;10.48;;
75220;SDS011;63802;53.232;6.570;2022-10-31T09:40:43;21.60;;;10.40;;
75220;SDS011;63802;53.232;6.570;2022-10-31T09:46:27;23.48;;;10.77;;
75220;SDS011;63802;53.232;6.570;2022-10-31T09:49:27;20.08;;;10.52;;
75220;SDS011;63802;53.232;6.570;2022-10-31T09:52:22;21.38;;;11.40;;
75220;SDS011;63802;53.232;6.570;2022-10-31T09:57:30;18.45;;;10.50;;
75220;SDS011;63802;53.232;6.570;2022-10-31T09:59:59;17.17;;;9.33;;
75220;SDS011;63802;53.232;6.570;2022-10-31T10:02:30;18.80;;;10.57;;
75220;SDS011;63802;53.232;6.570;2022-10-31T10:05:12;17.98;;;9.15;;
75220;SDS011;63802;53.232;6.570;2022-10-31T10:10:17;17.73;;;8.73;;
75220;SDS011;63802;53.232;6.570;2022-10-31T10:15:43;18.20;;;8.13;;
75220;SDS011;63802;53.232;6.570;2022-10-31T10:18:43;14.98;;;7.78;;
75220;SDS011;63802;53.232;6.570;2022-10-31T10:21:24;15.27;;;8.77;;
75220;SDS011;63802;53.232;6.570;2022-10-31T10:24:12;16.52;;;7.78;;
75220;SDS011;63802;53.232;6.570;2022-10-31T10:32:40;17.10;;;7.28;;
75220;SDS011;63802;53.232;6.570;2022-10-31T10:35:20;12.52;;;6.55;;
75220;SDS011;63802;53.232;6.570;2022-10-31T10:37:50;11.77;;;6.35;;
75220;SDS011;63802;53.232;6.570;2022-10-31T10:40:37;14.32;;;6.35;;
75220;SDS011;63802;53.232;6.570;2022-10-31T10:43:17;14.35;;;6.82;;
75220;SDS011;63802;53.232;6.570;2022-10-31T10:48:41;11.90;;;6.38;;
75220;SDS011;63802;53.232;6.570;2022-10-31T10:51:18;13.27;;;6.57;;
75220;SDS011;63802;53.232;6.570;2022-10-31T10:56:35;16.95;;;6.85;;
75220;SDS011;63802;53.232;6.570;2022-10-31T10:59:13;14.50;;;6.70;;
75220;SDS011;63802;53.232;6.570;2022-10-31T11:01:43;13.77;;;6.68;;
75220;SDS011;63802;53.232;6.570;2022-10-31T11:07:08;18.85;;;7.60;;
75220;SDS011;63802;53.232;6.570;2022-10-31T11:09:35;15.02;;;7.35;;
75220;SDS011;63802;53.232;6.570;2022-10-31T11:12:09;13.27;;;6.75;;
75220;SDS011;63802;53.232;6.570;2022-10-31T11:14:47;12.55;;;6.78;;
75220;SDS011;63802;53.232;6.570;2022-10-31T11:17:25;12.00;;;6.63;;
75220;SDS011;63802;53.232;6.570;2022-10-31T11:20:02;14.20;;;6.47;;
75220;SDS011;63802;53.232;6.570;2022-10-31T11:22:47;10.80;;;5.82;;
75220;SDS011;63802;53.232;6.570;2022-10-31T11:25:32;12.93;;;5.97;;
75220;SDS011;63802;53.232;6.570;2022-10-31T11:28:31;11.23;;;6.20;;
75220;SDS011;63802;53.232;6.570;2022-10-31T11:30:51;11.23;;;6.03;;
75220;SDS011;63802;53.232;6.570;2022-10-31T11:33:19;14.93;;;6.50;;
75220;SDS011;63802;53.232;6.570;2022-10-31T11:35:48;13.43;;;6.38;;
75220;SDS011;63802;53.232;6.570;2022-10-31T11:38:18;12.93;;;5.53;;
75220;SDS011;63802;53.232;6.570;2022-10-31T11:40:59;13.43;;;6.50;;
75220;SDS011;63802;53.232;6.570;2022-10-31T11:43:33;10.85;;;5.53;;
75220;SDS011;63802;53.232;6.570;2022-10-31T11:45:59;10.20;;;5.43;;
75220;SDS011;63802;53.232;6.570;2022-10-31T11:48:24;11.40;;;5.72;;
75220;SDS011;63802;53.232;6.570;2022-10-31T11:50:57;15.02;;;5.55;;
75220;SDS011;63802;53.232;6.570;2022-10-31T11:53:28;12.70;;;4.63;;
75220;SDS011;63802;53.232;6.570;2022-10-31T11:56:00;8.23;;;4.03;;
75220;SDS011;63802;53.232;6.570;2022-10-31T11:58:30;9.07;;;4.22;;
75220;SDS011;63802;53.232;6.570;2022-10-31T12:00:56;10.07;;;4.68;;
75220;SDS011;63802;53.232;6.570;2022-10-31T12:05:58;12.40;;;4.40;;
75220;SDS011;63802;53.232;6.570;2022-10-31T12:08:44;9.60;;;4.55;;
75220;SDS011;63802;53.232;6.570;2022-10-31T12:11:16;10.35;;;4.47;;
75220;SDS011;63802;53.232;6.570;2022-10-31T12:25:23;13.60;;;4.55;;
75220;SDS011;63802;53.232;6.570;2022-10-31T12:33:46;10.43;;;5.78;;
75220;SDS011;63802;53.232;6.570;2022-10-31T12:44:13;9.25;;;4.05;;
75220;SDS011;63802;53.232;6.570;2022-10-31T12:52:30;10.02;;;4.00;;
75220;SDS011;63802;53.232;6.570;2022-10-31T13:01:01;8.25;;;3.38;;
75220;SDS011;63802;53.232;6.570;2022-10-31T13:03:44;9.32;;;3.30;;
75220;SDS011;63802;53.232;6.570;2022-10-31T13:06:19;8.07;;;3.55;;
75220;SDS011;63802;53.232;6.570;2022-10-31T13:08:54;7.50;;;3.28;;
75220;SDS011;63802;53.232;6.570;2022-10-31T13:11:26;11.63;;;3.72;;
75220;SDS011;63802;53.232;6.570;2022-10-31T13:16:59;12.05;;;3.90;;
75220;SDS011;63802;53.232;6.570;2022-10-31T13:19:36;9.13;;;3.80;;
75220;SDS011;63802;53.232;6.570;2022-10-31T13:27:40;13.95;;;5.47;;
75220;SDS011;63802;53.232;6.570;2022-10-31T13:32:46;11.32;;;3.45;;
75220;SDS011;63802;53.232;6.570;2022-10-31T13:38:32;9.70;;;3.20;;
75220;SDS011;63802;53.232;6.570;2022-10-31T13:41:06;8.90;;;2.92;;
75220;SDS011;63802;53.232;6.570;2022-10-31T13:48:55;8.20;;;2.95;;
75220;SDS011;63802;53.232;6.570;2022-10-31T13:51:25;10.20;;;2.70;;
75220;SDS011;63802;53.232;6.570;2022-10-31T13:56:23;5.72;;;3.03;;
75220;SDS011;63802;53.232;6.570;2022-10-31T14:01:20;8.10;;;2.80;;
75220;SDS011;63802;53.232;6.570;2022-10-31T14:03:47;11.63;;;3.28;;
75220;SDS011;63802;53.232;6.570;2022-10-31T14:06:40;8.88;;;3.45;;
75220;SDS011;63802;53.232;6.570;2022-10-31T14:09:22;13.10;;;3.70;;
75220;SDS011;63802;53.232;6.570;2022-10-31T14:11:51;12.07;;;3.72;;
75220;SDS011;63802;53.232;6.570;2022-10-31T14:14:18;11.60;;;4.60;;
75220;SDS011;63802;53.232;6.570;2022-10-31T14:16:45;12.20;;;4.80;;
75220;SDS011;63802;53.232;6.570;2022-10-31T14:19:18;10.35;;;4.55;;
75220;SDS011;63802;53.232;6.570;2022-10-31T14:21:49;7.57;;;3.58;;
75220;SDS011;63802;53.232;6.570;2022-10-31T14:34:37;7.47;;;2.85;;
75220;SDS011;63802;53.232;6.570;2022-10-31T14:45:23;10.73;;;4.57;;
75220;SDS011;63802;53.232;6.570;2022-10-31T14:48:03;13.48;;;4.22;;
75220;SDS011;63802;53.232;6.570;2022-10-31T14:50:56;12.53;;;3.80;;
75220;SDS011;63802;53.232;6.570;2022-10-31T14:53:33;9.52;;;4.32;;
75220;SDS011;63802;53.232;6.570;2022-10-31T14:56:01;11.43;;;4.10;;
75220;SDS011;63802;53.232;6.570;2022-10-31T14:58:37;6.53;;;3.45;;
75220;SDS011;63802;53.232;6.570;2022-10-31T15:01:06;9.65;;;4.30;;
75220;SDS011;63802;53.232;6.570;2022-10-31T15:03:36;12.50;;;4.60;;
75220;SDS011;63802;53.232;6.570;2022-10-31T15:06:11;11.02;;;3.78;;
75220;SDS011;63802;53.232;6.570;2022-10-31T15:08:39;10.77;;;4.30;;
75220;SDS011;63802;53.232;6.570;2022-10-31T15:11:19;14.15;;;4.78;;
75220;SDS011;63802;53.232;6.570;2022-10-31T15:13:56;11.38;;;4.03;;
75220;SDS011;63802;53.232;6.570;2022-10-31T15:18:53;14.25;;;5.00;;
75220;SDS011;63802;53.232;6.570;2022-10-31T15:21:25;10.65;;;4.13;;
75220;SDS011;63802;53.232;6.570;2022-10-31T15:23:53;12.82;;;5.75;;
75220;SDS011;63802;53.232;6.570;2022-10-31T15:26:22;13.15;;;4.80;;
75220;SDS011;63802;53.232;6.570;2022-10-31T15:28:59;10.55;;;4.70;;
75220;SDS011;63802;53.232;6.570;2022-10-31T15:31:24;17.77;;;5.03;;
75220;SDS011;63802;53.232;6.570;2022-10-31T15:33:50;13.43;;;4.93;;
75220;SDS011;63802;53.232;6.570;2022-10-31T15:36:21;9.60;;;4.63;;
75220;SDS011;63802;53.232;6.570;2022-10-31T15:38:49;11.52;;;5.07;;
75220;SDS011;63802;53.232;6.570;2022-10-31T15:41:22;12.55;;;4.70;;
75220;SDS011;63802;53.232;6.570;2022-10-31T15:43:53;12.57;;;5.85;;
75220;SDS011;63802;53.232;6.570;2022-10-31T15:46:20;16.13;;;6.35;;
75220;SDS011;63802;53.232;6.570;2022-10-31T15:48:46;19.08;;;5.97;;
75220;SDS011;63802;53.232;6.570;2022-10-31T15:51:13;16.50;;;6.35;;
75220;SDS011;63802;53.232;6.570;2022-10-31T15:53:45;20.00;;;7.78;;
75220;SDS011;63802;53.232;6.570;2022-10-31T15:56:18;15.65;;;6.47;;
75220;SDS011;63802;53.232;6.570;2022-10-31T15:58:47;13.60;;;6.10;;
75220;SDS011;63802;53.232;6.570;2022-10-31T16:01:36;14.25;;;6.70;;
75220;SDS011;63802;53.232;6.570;2022-10-31T16:06:27;14.10;;;7.15;;
75220;SDS011;63802;53.232;6.570;2022-10-31T16:08:53;18.25;;;7.57;;
75220;SDS011;63802;53.232;6.570;2022-10-31T16:16:43;17.73;;;7.53;;
75220;SDS011;63802;53.232;6.570;2022-10-31T16:19:23;17.08;;;6.65;;
75220;SDS011;63802;53.232;6.570;2022-10-31T16:22:02;21.25;;;7.25;;
75220;SDS011;63802;53.232;6.570;2022-10-31T16:24:31;17.83;;;7.47;;
75220;SDS011;63802;53.232;6.570;2022-10-31T16:27:16;15.73;;;6.32;;
75220;SDS011;63802;53.232;6.570;2022-10-31T16:29:50;12.90;;;6.05;;
75220;SDS011;63802;53.232;6.570;2022-10-31T16:32:32;12.20;;;5.68;;
75220;SDS011;63802;53.232;6.570;2022-10-31T16:37:36;15.52;;;6.00;;
75220;SDS011;63802;53.232;6.570;2022-10-31T16:40:02;12.18;;;5.78;;
75220;SDS011;63802;53.232;6.570;2022-10-31T16:42:28;14.98;;;5.95;;
75220;SDS011;63802;53.232;6.570;2022-10-31T16:44:53;11.02;;;4.88;;
75220;SDS011;63802;53.232;6.570;2022-10-31T16:47:19;16.05;;;5.45;;
75220;SDS011;63802;53.232;6.570;2022-10-31T16:49:46;11.13;;;4.85;;
75220;SDS011;63802;53.232;6.570;2022-10-31T16:52:14;15.80;;;5.68;;
75220;SDS011;63802;53.232;6.570;2022-10-31T16:54:40;11.77;;;5.63;;
75220;SDS011;63802;53.232;6.570;2022-10-31T16:57:12;14.07;;;5.55;;
75220;SDS011;63802;53.232;6.570;2022-10-31T16:59:41;13.48;;;5.95;;
75220;SDS011;63802;53.232;6.570;2022-10-31T17:02:09;11.98;;;6.05;;
75220;SDS011;63802;53.232;6.570;2022-10-31T17:04:39;12.70;;;5.68;;
75220;SDS011;63802;53.232;6.570;2022-10-31T17:07:04;14.30;;;5.70;;
75220;SDS011;63802;53.232;6.570;2022-10-31T17:09:31;12.32;;;5.63;;
75220;SDS011;63802;53.232;6.570;2022-10-31T17:11:57;14.38;;;5.85;;
75220;SDS011;63802;53.232;6.570;2022-10-31T17:14:22;14.57;;;6.30;;